Nearby METAR Reports

 

KAVP - Avoca/Wilkes B., Pennsylvania, USA
Distance from station: NE 13mi, 20km
Updated: Sat, 24-Sep-2022 9:54pm PDT
Overcast
Overcast
 Wind from calm
Wind: Calm
Temperature: 52°F , 11°C
Dew Point: 46°F , 8°C
Humidity: 82%
Barometer: 29.88 inHg , 1011.9 hPa
Clouds: Overcast
Visibility: 10 miles , 16 km
Cloud details: Mostly Cloudy 8000 ft
Overcast 12000 ft
2022/09/25 04:54 KAVP 250454Z 00000KT 10SM BKN080 OVC120 11/08 A2988 RMK AO2 SLP115 T01110078 401940044
KMPO - Mt. Pocono, Pennsylvania, USA
Distance from station: ESE 28mi, 45km
Updated: Sat, 24-Sep-2022 9:53pm PDT
Overcast
Overcast
 Wind from W
Wind: W 5 mph , 7 km/h
Temperature: 48°F , 9°C
Wind Chill: 46°F , 8°C
Dew Point: 43°F , 6°C
Humidity: 82%
Barometer: 29.89 inHg , 1012.2 hPa
Clouds: Overcast
Visibility: 10 miles , 16 km
Cloud details: Few Clouds 7000 ft
Overcast 11000 ft
2022/09/25 04:53 KMPO 250453Z AUTO 26004KT 10SM FEW070 OVC110 09/06 A2989 RMK AO2 SLP125 T00890061 401670039
 
KABE - Allentown, Pennsylvania, USA
Distance from station: SSE 46mi, 74km
Updated: Sat, 24-Sep-2022 9:51pm PDT
Overcast
Overcast
 Wind from calm
Wind: Calm
Temperature: 52°F , 11°C
Dew Point: 46°F , 8°C
Humidity: 82%
Barometer: 29.90 inHg , 1012.5 hPa
Clouds: Overcast
Visibility: 10 miles , 16 km
Cloud details: Overcast 7000 ft
2022/09/25 04:51 KABE 250451Z 00000KT 10SM OVC070 11/08 A2990 RMK AO2 SLP124 T01060083 402000044
KXLL - Allentown Queen, Pennsylvania, USA
Distance from station: SSE 50mi, 81km
Updated: Sat, 24-Sep-2022 10:15pm PDT
Overcast
Overcast
 Wind from calm
Wind: Calm
Temperature: 54°F , 12°C
Dew Point: 46°F , 8°C
Humidity: 77%
Barometer: 29.91 inHg , 1012.9 hPa
Clouds: Overcast
Visibility: 10 miles , 16 km
Cloud details: Overcast 6500 ft
2022/09/25 05:15 KXLL 250515Z AUTO 00000KT 10SM OVC065 12/08 A2991 RMK AO2
 
KIPT - Williamsport, Pennsylvania, USA
Distance from station: W 52mi, 84km
Updated: Sat, 24-Sep-2022 9:54pm PDT
Overcast
Overcast
 Wind from calm
Wind: Calm
Temperature: 54°F , 12°C
Dew Point: 48°F , 9°C
Humidity: 82%
Barometer: 29.85 inHg , 1010.8 hPa
Clouds: Overcast
Visibility: 10 miles , 16 km
Cloud details: Overcast 6000 ft
2022/09/25 04:54 KIPT 250454Z AUTO 00000KT 10SM OVC060 12/09 A2985 RMK AO2 SLP109 T01220094 402110067
KSEG - Selinsgrove, Pennsylvania, USA
Distance from station: WSW 57mi, 92km
Updated: Sat, 24-Sep-2022 9:53pm PDT
Overcast
Overcast
 Wind from calm
Wind: Calm
Temperature: 54°F , 12°C
Dew Point: 52°F , 11°C
Humidity: 94%
Barometer: 29.88 inHg , 1011.9 hPa
Clouds: Overcast
Visibility: 10 miles , 16 km
Cloud details: Mostly Cloudy 7000 ft
Overcast 9000 ft
2022/09/25 04:53 KSEG 250453Z AUTO 00000KT 10SM BKN070 OVC090 12/11 A2988 RMK AO2 SLP117 T01220106 402060044
 
KRDG - Reading, Pennsylvania, USA
Distance from station: S 59mi, 95km
Updated: Sat, 24-Sep-2022 9:54pm PDT
Overcast
Overcast
 Wind from calm
Wind: Calm
Temperature: 59°F , 15°C
Dew Point: 46°F , 8°C
Humidity: 63%
Barometer: 29.89 inHg , 1012.2 hPa
Clouds: Overcast
Visibility: 10 miles , 16 km
Cloud details: Overcast 7000 ft
2022/09/25 04:54 KRDG 250454Z AUTO 00000KT 10SM OVC070 15/08 A2989 RMK AO2 SLP125 T01500083 402110072 $
KUKT - Quakertown Arp, Pennsylvania, USA
Distance from station: SSE 61mi, 98km
Updated: Sat, 24-Sep-2022 10:15pm PDT
Overcast
Overcast
 Wind from calm
Wind: Calm
Temperature: 52°F , 11°C
Dew Point: 50°F , 10°C
Humidity: 94%
Barometer: 29.90 inHg , 1012.5 hPa
Clouds: Overcast
Visibility: 10 miles , 16 km
Cloud details: Overcast 6500 ft
2022/09/25 05:15 KUKT 250515Z AUTO 00000KT 10SM OVC065 11/10 A2990 RMK A01
 
K12N - Andover, New Jersey, USA
Distance from station: ESE 63mi, 101km
Updated: Sat, 24-Sep-2022 9:54pm PDT

 Wind from SSW
Wind: SSW 5 mph , 7 km/h
Temperature: 50°F , 10°C
Wind Chill: 48°F , 9°C
Dew Point: 46°F , 8°C
Humidity: 88%
Barometer: 29.89 inHg , 1012.2 hPa
2022/09/25 04:54 K12N 250454Z AUTO 20004KT 10/08 A2989 RMK AO1 SLP121 T01000078 402220039
KMUI - Muir Aaf/Indiant, Pennsylvania, USA
Distance from station: SSW 65mi, 105km
Updated: Sat, 24-Sep-2022 9:55pm PDT
Overcast
Overcast
 Wind from calm
Wind: Calm
Temperature: 54°F , 12°C
Dew Point: 48°F , 9°C
Humidity: 82%
Barometer: 29.88 inHg , 1011.9 hPa
Clouds: Overcast
Visibility: 10 miles , 16 km
Cloud details: Overcast 6500 ft
2022/09/25 04:55 KMUI 250455Z AUTO 00000KT 10SM OVC065 12/09 A2988 RMK AO2 SLP121 T01160086 402020089
 
KFWN - Sussex, New Jersey, USA
Distance from station: E 66mi, 107km
Updated: Sat, 24-Sep-2022 9:53pm PDT
Partly Cloudy
Partly Cloudy
 Wind from calm
Wind: Calm
Temperature: 48°F , 9°C
Dew Point: 46°F , 8°C
Humidity: 94%
Barometer: 29.90 inHg , 1012.5 hPa
Clouds: Partly Cloudy
Visibility: 10 miles , 16 km
Cloud details: Partly Cloudy 11000 ft
2022/09/25 04:53 KFWN 250453Z AUTO 00000KT 10SM SCT110 09/08 A2990 RMK AO2 SLP123 T00940083 402060022
KMSV - Monticello, New York, USA
Distance from station: ENE 67mi, 108km
Updated: Sat, 24-Sep-2022 9:56pm PDT
Overcast
Overcast
 Wind from ESE
Wind: ESE 3 mph , 6 km/h
Temperature: 46°F , 8°C
Dew Point: 46°F , 8°C
Humidity: 100%
Barometer: 29.89 inHg , 1012.2 hPa
Clouds: Overcast
Visibility: 10 miles , 16 km
Cloud details: Mostly Cloudy 10000 ft
Overcast 12000 ft
2022/09/25 04:56 KMSV 250456Z AUTO 12003KT 10SM BKN100 OVC120 08/08 A2989 RMK AO2 SLP122 T00830078 401830022
 
KBGM - Binghamton, New York, USA
Distance from station: N 69mi, 111km
Updated: Sat, 24-Sep-2022 9:53pm PDT
Overcast
Overcast
 Wind from S
Wind: S 5 mph , 7 km/h
Temperature: 54°F , 12°C
Dew Point: 45°F , 7°C
Humidity: 72%
Barometer: 29.85 inHg , 1010.8 hPa
Clouds: Overcast
Visibility: 10 miles , 16 km
Cloud details: Overcast 6000 ft
2022/09/25 04:53 KBGM 250453Z AUTO 19004KT 10SM OVC060 12/07 A2985 RMK AO2 SLP108 T01170067 401610028 $
KPTW - Pottstown, Pennsylvania, USA
Distance from station: SSE 71mi, 114km
Updated: Sat, 24-Sep-2022 9:54pm PDT
Overcast
Overcast
 Wind from SSW
Wind: SSW 3 mph , 6 km/h
Temperature: 55°F , 13°C
Dew Point: 48°F , 9°C
Humidity: 77%
Barometer: 29.92 inHg , 1013.2 hPa
Clouds: Overcast
Visibility: 10 miles , 16 km
Cloud details: Overcast 7500 ft
2022/09/25 04:54 KPTW 250454Z AUTO 20003KT 10SM OVC075 13/09 A2992 RMK AO2 SLP128 T01330089 401940044
 
KDYL - Doylestown, Pennsylvania, USA
Distance from station: SE 74mi, 119km
Updated: Sat, 24-Sep-2022 9:54pm PDT
Overcast
Overcast
 Wind from S
Wind: S 3 mph , 6 km/h
Temperature: 57°F , 14°C
Dew Point: 46°F , 8°C
Humidity: 67%
Barometer: 29.90 inHg , 1012.5 hPa
Clouds: Overcast
Visibility: 10 miles , 16 km
Cloud details: Overcast 7000 ft
2022/09/25 04:54 KDYL 250454Z AUTO 18003KT 10SM OVC070 14/08 A2990 RMK AO2 SLP123 T01390083 402060061
KSMQ - Somerville, New Jersey, USA
Distance from station: ESE 77mi, 124km
Updated: Sat, 24-Sep-2022 9:53pm PDT
Mostly Cloudy
Mostly Cloudy
 Wind from calm
Wind: Calm
Temperature: 46°F , 8°C
Dew Point: 46°F , 8°C
Humidity: 100%
Barometer: 29.89 inHg , 1012.2 hPa
Clouds: Mostly Cloudy
Visibility: 10 miles , 16 km
Cloud details: Few Clouds 8000 ft
Mostly Cloudy 11000 ft
2022/09/25 04:53 KSMQ 250453Z AUTO 00000KT 10SM FEW080 BKN110 08/08 A2989 RMK AO2 SLP121 T00830078 402170028
 
KLNS - Lancaster, Pennsylvania, USA
Distance from station: SSW 79mi, 127km
Updated: Sat, 24-Sep-2022 9:53pm PDT
Overcast
Overcast
 Wind from calm
Wind: Calm
Temperature: 59°F , 15°C
Dew Point: 52°F , 11°C
Humidity: 77%
Barometer: 29.90 inHg , 1012.5 hPa
Clouds: Overcast
Visibility: 10 miles , 16 km
Cloud details: Overcast 7000 ft
2022/09/25 04:53 KLNS 250453Z AUTO 00000KT 10SM OVC070 15/11 A2990 RMK AO2 SLP123 T01500111 402110067
KELM - Elmira, New York, USA
Distance from station: NW 82mi, 132km
Updated: Sat, 24-Sep-2022 9:53pm PDT
Overcast
Overcast
 Wind from calm
Wind: Calm
Temperature: 52°F , 11°C
Dew Point: 50°F , 10°C
Humidity: 94%
Barometer: 29.84 inHg , 1010.5 hPa
Clouds: Overcast
Visibility: 10 miles , 16 km
Cloud details: Mostly Cloudy 6000 ft
Overcast 11000 ft
2022/09/25 04:53 KELM 250453Z AUTO 00000KT 10SM BKN060 OVC110 11/10 A2984 RMK AO2 SLP106 T01110100 401890022 $
 
KLOM - Philly Wings F, Pennsylvania, USA
Distance from station: SSE 82mi, 132km
Updated: Sat, 24-Sep-2022 10:15pm PDT
Overcast
Overcast
 Wind from WSW
Wind: WSW 3 mph , 6 km/h
Temperature: 59°F , 15°C
Dew Point: 50°F , 10°C
Humidity: 72%
Barometer: 29.91 inHg , 1012.9 hPa
Clouds: Overcast
Visibility: 10 miles , 16 km
Cloud details: Overcast 7500 ft
2022/09/25 05:15 KLOM 250515Z AUTO 24003KT 10SM OVC075 15/10 A2991 RMK AO2 T01490099
KMMU - Morristown Muni, New Jersey, USA
Distance from station: ESE 83mi, 134km
Updated: Sat, 24-Sep-2022 10:15pm PDT
Overcast
Overcast
 Wind from calm
Wind: Calm
Temperature: 50°F , 10°C
Dew Point: 46°F , 8°C
Humidity: 88%
Barometer: 29.90 inHg , 1012.5 hPa
Clouds: Overcast
Visibility: 10 miles , 16 km
Cloud details: Overcast 8500 ft
2022/09/25 05:15 KMMU 250515Z AUTO 00000KT 10SM OVC085 10/08 A2990 RMK AO2

Metar display script from Saratoga-Weather.org